createdAt,value
2017-08-24T00:00:03.058Z,16.20
2017-08-24T00:00:07.327Z,16.45
2017-08-24T00:00:11.582Z,16.60
2017-08-24T00:00:15.868Z,16.35
2017-08-24T00:00:20.140Z,16.03
2017-08-24T00:00:24.391Z,15.90
2017-08-24T00:00:28.640Z,15.95
2017-08-24T00:00:32.891Z,16.00
2017-08-24T00:00:37.147Z,16.00
2017-08-24T00:00:41.411Z,15.95
2017-08-24T00:00:45.667Z,15.90
2017-08-24T00:00:49.925Z,15.90
2017-08-24T00:00:54.192Z,16.40
2017-08-24T00:00:58.436Z,16.40
2017-08-24T00:01:02.683Z,16.25
2017-08-24T00:01:06.922Z,16.20
2017-08-24T00:01:11.173Z,16.25
2017-08-24T00:01:15.428Z,16.35
2017-08-24T00:01:19.661Z,16.50
2017-08-24T00:01:23.928Z,16.40
2017-08-24T00:01:28.181Z,16.40
2017-08-24T00:01:32.431Z,16.40
2017-08-24T00:01:36.679Z,16.15
2017-08-24T00:01:40.926Z,16.03
2017-08-24T00:01:45.184Z,16.10
2017-08-24T00:01:49.426Z,16.05
2017-08-24T00:01:53.675Z,15.45
2017-08-24T00:01:57.935Z,14.93
2017-08-24T00:02:02.203Z,14.80
2017-08-24T00:02:06.460Z,14.75
2017-08-24T00:02:10.709Z,14.90
2017-08-24T00:02:14.980Z,15.05
2017-08-24T00:02:19.209Z,15.10
2017-08-24T00:02:23.460Z,15.05
2017-08-24T00:02:27.725Z,15.03
2017-08-24T00:02:31.988Z,15.25
2017-08-24T00:02:36.213Z,15.55
2017-08-24T00:02:40.482Z,15.80
2017-08-24T00:02:44.722Z,15.77
2017-08-24T00:02:48.983Z,15.80
2017-08-24T00:02:53.232Z,15.95
2017-08-24T00:02:57.499Z,16.25
2017-08-24T00:03:01.746Z,16.50
2017-08-24T00:03:05.985Z,16.50
2017-08-24T00:03:10.229Z,16.05
2017-08-24T00:03:14.505Z,15.73
2017-08-24T00:03:18.766Z,15.65
2017-08-24T00:03:23.003Z,15.85
2017-08-24T00:03:27.241Z,15.90
2017-08-24T00:03:31.507Z,15.90
2017-08-24T00:03:35.769Z,15.70
2017-08-24T00:03:40.019Z,15.75
2017-08-24T00:03:44.253Z,16.00
2017-08-24T00:03:48.502Z,15.87
2017-08-24T00:03:52.746Z,15.80
2017-08-24T00:03:57.007Z,15.55
2017-08-24T00:04:01.264Z,15.40
2017-08-24T00:04:05.567Z,15.30
2017-08-24T00:04:10.565Z,15.50
2017-08-24T00:04:14.817Z,15.70
2017-08-24T00:04:19.078Z,15.85
2017-08-24T00:04:23.319Z,15.90
2017-08-24T00:04:27.576Z,15.80
2017-08-24T00:04:31.831Z,15.65
2017-08-24T00:04:36.070Z,15.45
2017-08-24T00:04:40.330Z,15.20
2017-08-24T00:04:44.569Z,15.00
2017-08-24T00:04:48.832Z,15.00
2017-08-24T00:04:53.061Z,15.20
2017-08-24T00:04:57.319Z,15.30
2017-08-24T00:05:01.561Z,15.30
2017-08-24T00:05:05.826Z,15.25
2017-08-24T00:05:10.211Z,15.35
2017-08-24T00:05:14.455Z,15.50
2017-08-24T00:05:18.717Z,15.25
2017-08-24T00:05:22.946Z,15.10
2017-08-24T00:05:27.216Z,15.03
2017-08-24T00:05:31.482Z,15.25
2017-08-24T00:05:35.743Z,15.50
2017-08-24T00:05:39.996Z,15.70
2017-08-24T00:05:44.264Z,15.70
2017-08-24T00:05:48.519Z,15.80
2017-08-24T00:05:52.769Z,15.60
2017-08-24T00:05:57.040Z,15.63
2017-08-24T00:06:01.280Z,15.65
2017-08-24T00:06:05.525Z,15.85
2017-08-24T00:06:09.779Z,15.60
2017-08-24T00:06:14.025Z,15.57
2017-08-24T00:06:18.303Z,15.50
2017-08-24T00:06:22.555Z,15.45
2017-08-24T00:06:26.793Z,15.40
2017-08-24T00:06:31.058Z,15.23
2017-08-24T00:06:35.297Z,15.05
2017-08-24T00:06:39.567Z,15.00
2017-08-24T00:06:43.819Z,14.90
2017-08-24T00:06:48.079Z,14.77
2017-08-24T00:06:52.327Z,14.50
2017-08-24T00:06:56.575Z,14.35
2017-08-24T00:07:00.832Z,14.23
2017-08-24T00:07:05.081Z,14.00
2017-08-24T00:07:09.318Z,13.95
2017-08-24T00:07:13.569Z,13.80
2017-08-24T00:07:17.809Z,14.00
2017-08-24T00:07:22.075Z,14.10
2017-08-24T00:07:26.306Z,13.95
2017-08-24T00:07:30.580Z,13.70
2017-08-24T00:07:34.839Z,13.70
2017-08-24T00:07:39.085Z,13.50
2017-08-24T00:07:43.325Z,13.60
2017-08-24T00:07:47.583Z,13.60
2017-08-24T00:07:51.848Z,13.80
2017-08-24T00:07:56.109Z,13.90
2017-08-24T00:08:00.341Z,13.90
2017-08-24T00:08:04.601Z,13.90
2017-08-24T00:08:08.853Z,13.90
2017-08-24T00:08:13.111Z,13.90
2017-08-24T00:08:17.355Z,13.65
2017-08-24T00:08:21.631Z,13.63
2017-08-24T00:08:25.891Z,13.70
2017-08-24T00:08:30.133Z,14.05
2017-08-24T00:08:34.383Z,14.10
2017-08-24T00:08:38.629Z,14.20
2017-08-24T00:08:42.875Z,14.30
2017-08-24T00:08:47.127Z,14.50
2017-08-24T00:08:51.380Z,14.55
2017-08-24T00:08:55.639Z,14.60
2017-08-24T00:08:59.877Z,14.65
2017-08-24T00:09:04.134Z,14.85
2017-08-24T00:09:09.136Z,14.80
2017-08-24T00:09:13.403Z,14.80
2017-08-24T00:09:17.654Z,15.07
2017-08-24T00:09:21.915Z,14.95
2017-08-24T00:09:26.165Z,14.90
2017-08-24T00:09:30.406Z,14.67
2017-08-24T00:09:34.663Z,14.60
2017-08-24T00:09:38.901Z,14.60
2017-08-24T00:09:43.159Z,14.60
2017-08-24T00:09:47.418Z,14.60
2017-08-24T00:09:51.661Z,14.45
2017-08-24T00:09:55.897Z,14.55
2017-08-24T00:10:00.152Z,14.60
2017-08-24T00:10:04.421Z,14.60
2017-08-24T00:10:08.655Z,14.60
2017-08-24T00:10:12.909Z,14.80
2017-08-24T00:10:17.150Z,14.70
2017-08-24T00:10:21.405Z,14.83
2017-08-24T00:10:25.649Z,15.10
2017-08-24T00:10:29.893Z,15.05
2017-08-24T00:10:34.148Z,14.90
2017-08-24T00:10:38.407Z,15.00
2017-08-24T00:10:42.641Z,15.00
2017-08-24T00:10:46.882Z,14.85
2017-08-24T00:10:51.132Z,14.80
2017-08-24T00:10:55.404Z,14.70
2017-08-24T00:10:59.659Z,14.80
2017-08-24T00:11:03.894Z,14.70
2017-08-24T00:11:08.159Z,14.70
2017-08-24T00:11:12.408Z,14.60
2017-08-24T00:11:16.657Z,14.60
2017-08-24T00:11:20.913Z,14.60
2017-08-24T00:11:25.153Z,14.60
2017-08-24T00:11:29.405Z,14.80
2017-08-24T00:11:33.650Z,15.00
2017-08-24T00:11:37.908Z,15.00
2017-08-24T00:11:42.159Z,15.20
2017-08-24T00:11:46.421Z,15.35
2017-08-24T00:11:50.675Z,15.20
2017-08-24T00:11:54.925Z,15.13
2017-08-24T00:11:59.182Z,14.85
2017-08-24T00:12:03.436Z,14.90
2017-08-24T00:12:07.673Z,15.10
2017-08-24T00:12:11.926Z,15.10
2017-08-24T00:12:16.177Z,15.00
2017-08-24T00:12:20.424Z,14.90
2017-08-24T00:12:24.695Z,14.80
2017-08-24T00:12:28.942Z,14.90
2017-08-24T00:12:33.200Z,15.00
2017-08-24T00:12:37.451Z,15.05
2017-08-24T00:12:41.704Z,14.85
2017-08-24T00:12:45.984Z,14.70
2017-08-24T00:12:50.241Z,14.90
2017-08-24T00:12:54.491Z,14.95
2017-08-24T00:12:58.741Z,15.10
2017-08-24T00:13:03.011Z,14.95
2017-08-24T00:13:07.249Z,14.70
2017-08-24T00:13:11.507Z,14.60
2017-08-24T00:13:15.746Z,14.80
2017-08-24T00:13:20.008Z,15.00
2017-08-24T00:13:24.243Z,14.95
2017-08-24T00:13:28.495Z,14.75
2017-08-24T00:13:33.756Z,14.70
2017-08-24T00:13:38.334Z,14.63
2017-08-24T00:13:42.583Z,14.90
2017-08-24T00:13:46.850Z,15.20
2017-08-24T00:13:51.100Z,15.50
2017-08-24T00:13:56.004Z,15.77
2017-08-24T00:14:00.445Z,15.95
2017-08-24T00:14:04.711Z,16.27
2017-08-24T00:14:09.089Z,16.55
2017-08-24T00:14:13.344Z,16.80
2017-08-24T00:14:17.609Z,16.63
2017-08-24T00:14:21.841Z,16.65
2017-08-24T00:14:26.102Z,16.95
2017-08-24T00:14:30.443Z,17.20
2017-08-24T00:14:34.693Z,17.10
2017-08-24T00:14:38.938Z,17.15
2017-08-24T00:14:43.195Z,17.30
2017-08-24T00:14:47.456Z,17.17
2017-08-24T00:14:51.710Z,17.10
2017-08-24T00:14:55.955Z,17.05
2017-08-24T00:15:00.181Z,17.20
2017-08-24T00:15:04.435Z,17.00
2017-08-24T00:15:08.691Z,17.10
2017-08-24T00:15:13.713Z,16.85
2017-08-24T00:15:17.956Z,16.87
2017-08-24T00:15:22.193Z,17.10
2017-08-24T00:15:27.202Z,17.20
2017-08-24T00:15:31.454Z,17.23
2017-08-24T00:15:35.719Z,17.40
2017-08-24T00:15:40.735Z,17.30
2017-08-24T00:15:44.990Z,17.20
2017-08-24T00:15:49.238Z,17.30
2017-08-24T00:15:53.502Z,17.40
2017-08-24T00:15:57.772Z,17.50
2017-08-24T00:16:01.993Z,17.55
2017-08-24T00:16:06.253Z,17.67
2017-08-24T00:16:10.489Z,17.80
2017-08-24T00:16:14.729Z,18.10
2017-08-24T00:16:19.751Z,18.15
2017-08-24T00:16:24.003Z,18.10
2017-08-24T00:16:28.267Z,17.93
2017-08-24T00:16:32.525Z,18.20
2017-08-24T00:16:36.762Z,18.25
2017-08-24T00:16:41.009Z,18.20
2017-08-24T00:16:45.283Z,18.30
2017-08-24T00:16:49.521Z,18.15
2017-08-24T00:16:53.767Z,18.00
2017-08-24T00:16:58.015Z,17.85
2017-08-24T00:17:02.262Z,17.87
2017-08-24T00:17:06.501Z,17.90
2017-08-24T00:17:10.741Z,17.90
2017-08-24T00:17:15.003Z,18.00
2017-08-24T00:17:19.263Z,17.95
2017-08-24T00:17:23.513Z,17.90
2017-08-24T00:17:27.746Z,18.30
2017-08-24T00:17:31.990Z,18.07
2017-08-24T00:17:36.255Z,17.80
2017-08-24T00:17:40.497Z,17.90
2017-08-24T00:17:44.742Z,17.80
2017-08-24T00:17:49.008Z,17.70
2017-08-24T00:17:53.251Z,17.65
2017-08-24T00:17:57.504Z,18.30
2017-08-24T00:18:01.755Z,18.30
2017-08-24T00:18:06.015Z,18.30
2017-08-24T00:18:10.253Z,18.10
2017-08-24T00:18:14.510Z,18.00
2017-08-24T00:18:18.749Z,18.10
2017-08-24T00:18:22.994Z,18.07
2017-08-24T00:18:27.233Z,17.60
2017-08-24T00:18:31.492Z,17.60
2017-08-24T00:18:35.743Z,17.73
2017-08-24T00:18:40.758Z,17.50
2017-08-24T00:18:45.015Z,17.63
2017-08-24T00:18:49.263Z,17.75
2017-08-24T00:18:53.501Z,18.00
2017-08-24T00:18:57.771Z,17.30
2017-08-24T00:19:02.013Z,17.30
2017-08-24T00:19:06.271Z,17.25
2017-08-24T00:19:10.501Z,17.20
2017-08-24T00:19:14.753Z,17.10
2017-08-24T00:19:19.014Z,17.10
2017-08-24T00:19:23.274Z,17.15
2017-08-24T00:19:27.509Z,17.30
2017-08-24T00:19:31.771Z,17.30
2017-08-24T00:19:36.013Z,17.45
2017-08-24T00:19:40.268Z,17.60
2017-08-24T00:19:44.527Z,17.50
2017-08-24T00:19:48.783Z,17.37
2017-08-24T00:19:53.026Z,17.15
2017-08-24T00:19:57.287Z,17.05
2017-08-24T00:20:01.517Z,16.97
2017-08-24T00:20:05.757Z,16.80
2017-08-24T00:20:10.014Z,16.90
2017-08-24T00:20:14.277Z,17.15
2017-08-24T00:20:18.498Z,17.13
2017-08-24T00:20:22.747Z,17.35
2017-08-24T00:20:27.746Z,17.50
2017-08-24T00:20:32.029Z,17.50
2017-08-24T00:20:36.291Z,17.60
2017-08-24T00:20:40.535Z,17.43
2017-08-24T00:20:44.769Z,17.25
2017-08-24T00:20:49.024Z,17.15
2017-08-24T00:20:53.273Z,16.95
2017-08-24T00:20:57.537Z,17.10
2017-08-24T00:21:01.785Z,17.10
2017-08-24T00:21:06.034Z,17.20
2017-08-24T00:21:10.283Z,17.20
2017-08-24T00:21:14.543Z,16.95
2017-08-24T00:21:18.791Z,16.75
2017-08-24T00:21:23.045Z,16.55
2017-08-24T00:21:27.277Z,16.23
2017-08-24T00:21:31.526Z,16.15
2017-08-24T00:21:35.769Z,16.00
2017-08-24T00:21:40.023Z,16.00
2017-08-24T00:21:44.307Z,15.93
2017-08-24T00:21:48.572Z,15.95
2017-08-24T00:21:52.839Z,16.35
2017-08-24T00:21:57.102Z,16.50
2017-08-24T00:22:01.363Z,16.63
2017-08-24T00:22:05.619Z,16.80
2017-08-24T00:22:09.887Z,16.70
2017-08-24T00:22:14.129Z,16.73
2017-08-24T00:22:18.387Z,16.80
2017-08-24T00:22:22.630Z,16.90
2017-08-24T00:22:26.898Z,17.05
2017-08-24T00:22:31.159Z,17.00
2017-08-24T00:22:36.169Z,16.95
2017-08-24T00:22:41.219Z,16.93
2017-08-24T00:22:45.450Z,17.20
2017-08-24T00:22:49.701Z,17.40
2017-08-24T00:22:53.954Z,17.15
2017-08-24T00:22:58.212Z,17.13
2017-08-24T00:23:02.459Z,17.30
2017-08-24T00:23:06.715Z,17.10
2017-08-24T00:23:10.959Z,17.27
2017-08-24T00:23:15.210Z,17.50
2017-08-24T00:23:19.459Z,17.60
2017-08-24T00:23:23.694Z,17.55
2017-08-24T00:23:27.970Z,17.70
2017-08-24T00:23:32.202Z,17.85
2017-08-24T00:23:36.457Z,17.90
2017-08-24T00:23:40.686Z,18.15
2017-08-24T00:23:44.951Z,18.20
2017-08-24T00:23:49.189Z,18.20
2017-08-24T00:23:53.448Z,18.30
2017-08-24T00:23:57.700Z,18.25
2017-08-24T00:24:01.967Z,17.93
2017-08-24T00:24:06.205Z,17.90
2017-08-24T00:24:10.445Z,17.75
2017-08-24T00:24:14.681Z,17.45
2017-08-24T00:24:19.713Z,17.57
2017-08-24T00:24:23.975Z,17.67
2017-08-24T00:24:28.225Z,17.40
2017-08-24T00:24:32.498Z,17.45
2017-08-24T00:24:36.734Z,17.77
2017-08-24T00:24:40.961Z,17.85
2017-08-24T00:24:45.205Z,17.90
2017-08-24T00:24:49.461Z,17.90
2017-08-24T00:24:53.702Z,17.80
2017-08-24T00:24:57.956Z,17.80
2017-08-24T00:25:02.193Z,18.00
2017-08-24T00:25:06.434Z,18.10
2017-08-24T00:25:10.693Z,18.30
2017-08-24T00:25:14.956Z,18.25
2017-08-24T00:25:19.971Z,17.95
2017-08-24T00:25:24.205Z,18.07
2017-08-24T00:25:28.449Z,18.35
2017-08-24T00:25:32.719Z,18.37
2017-08-24T00:25:36.961Z,18.10
2017-08-24T00:25:41.218Z,17.95
2017-08-24T00:25:46.239Z,17.73
2017-08-24T00:25:50.487Z,17.63
2017-08-24T00:25:54.754Z,17.95
2017-08-24T00:25:59.020Z,18.20
2017-08-24T00:26:03.257Z,18.30
2017-08-24T00:26:07.509Z,18.33
2017-08-24T00:26:11.747Z,18.50
2017-08-24T00:26:16.003Z,18.60
2017-08-24T00:26:20.259Z,18.70
2017-08-24T00:26:24.505Z,18.67
2017-08-24T00:26:28.855Z,18.90
2017-08-24T00:26:33.091Z,18.90
2017-08-24T00:26:37.344Z,19.00
2017-08-24T00:26:41.582Z,19.40
2017-08-24T00:26:45.835Z,19.45
2017-08-24T00:26:50.080Z,19.40
2017-08-24T00:26:54.328Z,19.23
2017-08-24T00:26:58.595Z,18.95
2017-08-24T00:27:02.844Z,18.80
2017-08-24T00:27:07.091Z,18.90
2017-08-24T00:27:11.351Z,18.63
2017-08-24T00:27:15.599Z,18.50
2017-08-24T00:27:19.833Z,18.50
2017-08-24T00:27:24.092Z,18.75
2017-08-24T00:27:28.355Z,18.70
2017-08-24T00:27:32.589Z,18.75
2017-08-24T00:27:36.844Z,18.75
2017-08-24T00:27:41.096Z,18.30
2017-08-24T00:27:45.343Z,18.23
2017-08-24T00:27:49.595Z,18.20
2017-08-24T00:27:53.843Z,18.20
2017-08-24T00:27:58.085Z,18.37
2017-08-24T00:28:02.343Z,18.55
2017-08-24T00:28:06.595Z,18.80
2017-08-24T00:28:10.843Z,18.70
2017-08-24T00:28:15.111Z,18.87
2017-08-24T00:28:19.349Z,19.00
2017-08-24T00:28:23.597Z,18.85
2017-08-24T00:28:27.847Z,18.80
2017-08-24T00:28:32.107Z,18.77
2017-08-24T00:28:36.360Z,18.85
2017-08-24T00:28:40.611Z,19.15
2017-08-24T00:28:44.859Z,19.50
2017-08-24T00:28:49.195Z,20.00
2017-08-24T00:28:53.438Z,20.20
2017-08-24T00:28:57.691Z,20.15
2017-08-24T00:29:01.947Z,19.97
2017-08-24T00:29:06.199Z,19.70
2017-08-24T00:29:10.451Z,19.85
2017-08-24T00:29:14.685Z,19.75
2017-08-24T00:29:18.938Z,19.50
2017-08-24T00:29:23.186Z,19.60
2017-08-24T00:29:27.421Z,19.55
2017-08-24T00:29:31.683Z,19.40
2017-08-24T00:29:35.959Z,19.50
2017-08-24T00:29:40.197Z,19.25
2017-08-24T00:29:44.469Z,18.95
2017-08-24T00:29:48.733Z,18.80
2017-08-24T00:29:52.985Z,18.70
2017-08-24T00:29:57.275Z,18.80
2017-08-24T00:30:01.523Z,18.90
2017-08-24T00:30:05.788Z,18.70
2017-08-24T00:30:10.039Z,18.70
2017-08-24T00:30:14.274Z,18.80
2017-08-24T00:30:18.533Z,18.95
2017-08-24T00:30:22.795Z,19.00
2017-08-24T00:30:27.029Z,19.00
2017-08-24T00:30:31.289Z,19.00
2017-08-24T00:30:35.546Z,19.00
2017-08-24T00:30:39.856Z,19.10
2017-08-24T00:30:44.069Z,19.35
2017-08-24T00:30:48.324Z,19.50
2017-08-24T00:30:52.591Z,19.47
2017-08-24T00:30:56.847Z,19.40
2017-08-24T00:31:01.101Z,19.65
2017-08-24T00:31:05.347Z,19.85
2017-08-24T00:31:09.605Z,19.93
2017-08-24T00:31:13.867Z,20.00
2017-08-24T00:31:18.887Z,19.90
2017-08-24T00:31:23.135Z,19.90
2017-08-24T00:31:27.399Z,20.05
2017-08-24T00:31:31.659Z,20.23
2017-08-24T00:31:35.911Z,20.30
2017-08-24T00:31:40.162Z,20.45
2017-08-24T00:31:44.429Z,20.40
2017-08-24T00:31:49.421Z,20.40
2017-08-24T00:31:53.664Z,20.27
2017-08-24T00:31:57.924Z,20.10
2017-08-24T00:32:02.164Z,20.10
2017-08-24T00:32:06.427Z,20.30
2017-08-24T00:32:10.689Z,20.40
2017-08-24T00:32:14.936Z,20.40
2017-08-24T00:32:19.955Z,20.45
2017-08-24T00:32:24.207Z,20.23
2017-08-24T00:32:28.453Z,20.10
2017-08-24T00:32:32.706Z,20.10
2017-08-24T00:32:36.963Z,20.15
2017-08-24T00:32:41.209Z,20.03
2017-08-24T00:32:45.453Z,19.95
2017-08-24T00:32:49.716Z,19.90
2017-08-24T00:32:53.955Z,20.20
2017-08-24T00:32:58.193Z,20.50
2017-08-24T00:33:02.439Z,20.40
2017-08-24T00:33:06.698Z,20.40
2017-08-24T00:33:10.924Z,20.45
2017-08-24T00:33:15.163Z,20.93
2017-08-24T00:33:19.418Z,21.10
2017-08-24T00:33:23.783Z,21.40
2017-08-24T00:33:28.015Z,21.30
2017-08-24T00:33:32.265Z,21.27
2017-08-24T00:33:36.506Z,21.10
2017-08-24T00:33:40.759Z,21.20
2017-08-24T00:33:44.997Z,21.15
2017-08-24T00:33:49.263Z,21.07
2017-08-24T00:33:53.506Z,20.90
2017-08-24T00:33:57.769Z,21.00
2017-08-24T00:34:02.006Z,21.00
2017-08-24T00:34:06.263Z,21.00
2017-08-24T00:34:10.524Z,20.95
2017-08-24T00:34:14.757Z,20.50
2017-08-24T00:34:19.005Z,20.40
2017-08-24T00:34:23.259Z,20.40
2017-08-24T00:34:27.493Z,20.50
2017-08-24T00:34:31.741Z,20.65
2017-08-24T00:34:35.993Z,20.80
2017-08-24T00:34:40.233Z,20.80
2017-08-24T00:34:44.477Z,21.00
2017-08-24T00:34:48.717Z,21.40
2017-08-24T00:34:52.979Z,21.43
2017-08-24T00:34:57.233Z,21.35
2017-08-24T00:35:01.492Z,21.20
2017-08-24T00:35:05.736Z,21.25
2017-08-24T00:35:09.997Z,21.40
2017-08-24T00:35:14.241Z,21.45
2017-08-24T00:35:18.496Z,21.60
2017-08-24T00:35:22.729Z,21.93
2017-08-24T00:35:26.995Z,22.00
2017-08-24T00:35:31.229Z,21.80
2017-08-24T00:35:35.477Z,21.80
2017-08-24T00:35:39.717Z,21.90
2017-08-24T00:35:43.959Z,21.80
2017-08-24T00:35:48.201Z,21.65
2017-08-24T00:35:52.442Z,22.10
2017-08-24T00:35:56.700Z,22.13
2017-08-24T00:36:00.958Z,22.25
2017-08-24T00:36:05.212Z,22.35
2017-08-24T00:36:09.452Z,22.30
2017-08-24T00:36:13.719Z,22.57
2017-08-24T00:36:17.973Z,22.60
2017-08-24T00:36:22.210Z,22.50
2017-08-24T00:36:26.449Z,22.10
2017-08-24T00:36:30.721Z,22.30
2017-08-24T00:36:34.954Z,22.65
2017-08-24T00:36:39.208Z,23.00
2017-08-24T00:36:43.459Z,23.35
2017-08-24T00:36:47.719Z,23.50
2017-08-24T00:36:51.957Z,23.10
2017-08-24T00:36:56.208Z,23.00
2017-08-24T00:37:00.463Z,22.93
2017-08-24T00:37:04.705Z,22.80
2017-08-24T00:37:08.967Z,22.80
2017-08-24T00:37:13.216Z,22.80
2017-08-24T00:37:17.457Z,22.77
2017-08-24T00:37:21.723Z,22.90
2017-08-24T00:37:25.971Z,23.30
2017-08-24T00:37:30.223Z,23.20
2017-08-24T00:37:35.242Z,22.83
2017-08-24T00:37:40.266Z,22.27
2017-08-24T00:37:44.511Z,21.83
2017-08-24T00:37:48.759Z,21.70
2017-08-24T00:37:53.028Z,21.90
2017-08-24T00:37:57.269Z,21.93
2017-08-24T00:38:01.531Z,22.20
2017-08-24T00:38:05.774Z,22.35
2017-08-24T00:38:10.032Z,22.40
2017-08-24T00:38:14.262Z,22.23
2017-08-24T00:38:18.513Z,22.30
2017-08-24T00:38:22.767Z,22.00
2017-08-24T00:38:27.010Z,21.90
2017-08-24T00:38:31.279Z,22.13
2017-08-24T00:38:35.528Z,22.20
2017-08-24T00:38:39.760Z,22.55
2017-08-24T00:38:44.009Z,22.95
2017-08-24T00:38:48.257Z,23.03
2017-08-24T00:38:53.287Z,22.90
2017-08-24T00:38:57.521Z,22.90
2017-08-24T00:39:01.783Z,22.80
2017-08-24T00:39:06.027Z,22.80
2017-08-24T00:39:10.278Z,22.77
2017-08-24T00:39:14.520Z,22.80
2017-08-24T00:39:18.765Z,22.65
2017-08-24T00:39:23.028Z,22.57
2017-08-24T00:39:27.270Z,22.60
2017-08-24T00:39:31.539Z,22.60
2017-08-24T00:39:35.781Z,22.65
2017-08-24T00:39:40.055Z,22.50
2017-08-24T00:39:44.291Z,22.00
2017-08-24T00:39:48.537Z,22.10
2017-08-24T00:39:52.793Z,22.10
2017-08-24T00:39:57.055Z,22.00
2017-08-24T00:40:01.303Z,22.00
2017-08-24T00:40:05.537Z,22.05
2017-08-24T00:40:09.795Z,22.15
2017-08-24T00:40:14.042Z,22.40
2017-08-24T00:40:18.284Z,22.40
2017-08-24T00:40:22.535Z,22.45
2017-08-24T00:40:26.778Z,22.30
2017-08-24T00:40:31.036Z,22.20
2017-08-24T00:40:35.269Z,22.15
2017-08-24T00:40:39.513Z,22.15
2017-08-24T00:40:43.757Z,22.50
2017-08-24T00:40:48.023Z,22.55
2017-08-24T00:40:52.261Z,22.75
2017-08-24T00:40:56.519Z,22.95
2017-08-24T00:41:00.825Z,22.83
2017-08-24T00:41:05.061Z,22.60
2017-08-24T00:41:09.320Z,22.55
2017-08-24T00:41:13.553Z,22.55
2017-08-24T00:41:18.566Z,22.63
2017-08-24T00:41:22.813Z,22.97
2017-08-24T00:41:27.062Z,23.20
2017-08-24T00:41:31.319Z,23.20
2017-08-24T00:41:35.580Z,23.30
2017-08-24T00:41:39.848Z,23.17
2017-08-24T00:41:44.081Z,23.05
2017-08-24T00:41:48.317Z,23.20
2017-08-24T00:41:52.575Z,22.97
2017-08-24T00:41:56.836Z,22.90
2017-08-24T00:42:01.087Z,23.10
2017-08-24T00:42:05.321Z,23.15
2017-08-24T00:42:09.588Z,23.07
2017-08-24T00:42:13.843Z,22.65
2017-08-24T00:42:18.095Z,22.60
2017-08-24T00:42:22.338Z,22.55
2017-08-24T00:42:26.603Z,22.60
2017-08-24T00:42:30.890Z,22.60
2017-08-24T00:42:35.127Z,22.60
2017-08-24T00:42:39.369Z,22.75
2017-08-24T00:42:43.635Z,22.93
2017-08-24T00:42:47.873Z,22.70
2017-08-24T00:42:52.113Z,22.70
2017-08-24T00:42:56.365Z,22.80
2017-08-24T00:43:00.613Z,22.80
2017-08-24T00:43:04.871Z,22.75
2017-08-24T00:43:09.105Z,22.95
2017-08-24T00:43:13.357Z,23.37
2017-08-24T00:43:17.623Z,23.75
2017-08-24T00:43:21.863Z,23.60
2017-08-24T00:43:26.114Z,23.60
2017-08-24T00:43:30.394Z,24.23
2017-08-24T00:43:34.659Z,24.30
2017-08-24T00:43:38.902Z,24.10
2017-08-24T00:43:43.157Z,24.10
2017-08-24T00:43:47.405Z,24.50
2017-08-24T00:43:51.687Z,24.85
2017-08-24T00:43:55.997Z,24.70
2017-08-24T00:44:00.260Z,24.67
2017-08-24T00:44:04.516Z,24.60
2017-08-24T00:44:08.763Z,24.50
2017-08-24T00:44:13.769Z,24.35
2017-08-24T00:44:18.010Z,24.57
2017-08-24T00:44:22.271Z,24.47
2017-08-24T00:44:26.510Z,24.55
2017-08-24T00:44:30.749Z,23.90
2017-08-24T00:44:34.990Z,23.90
2017-08-24T00:44:39.245Z,23.90
2017-08-24T00:44:43.499Z,23.90
2017-08-24T00:44:47.757Z,23.90
2017-08-24T00:44:52.022Z,23.80
2017-08-24T00:44:56.281Z,24.20
2017-08-24T00:45:01.296Z,24.35
2017-08-24T00:45:05.540Z,24.50
2017-08-24T00:45:09.783Z,24.55
2017-08-24T00:45:14.063Z,24.57
2017-08-24T00:45:18.314Z,24.30
2017-08-24T00:45:22.555Z,24.45
2017-08-24T00:45:26.809Z,24.30
2017-08-24T00:45:31.053Z,24.40
2017-08-24T00:45:35.308Z,24.60
2017-08-24T00:45:39.571Z,24.45
2017-08-24T00:45:43.832Z,24.40
2017-08-24T00:45:48.092Z,24.20
2017-08-24T00:45:52.329Z,24.15
2017-08-24T00:45:56.590Z,23.85
2017-08-24T00:46:00.833Z,23.87
2017-08-24T00:46:05.082Z,23.70
2017-08-24T00:46:09.345Z,23.70
2017-08-24T00:46:13.587Z,23.70
2017-08-24T00:46:17.840Z,23.70
2017-08-24T00:46:22.093Z,23.70
2017-08-24T00:46:27.097Z,23.60
2017-08-24T00:46:31.360Z,23.60
2017-08-24T00:46:35.601Z,23.60
2017-08-24T00:46:40.613Z,23.77
2017-08-24T00:46:44.880Z,23.60
2017-08-24T00:46:49.131Z,23.70
2017-08-24T00:46:53.394Z,23.85
2017-08-24T00:46:57.637Z,24.13
2017-08-24T00:47:01.890Z,24.00
2017-08-24T00:47:06.160Z,24.35
2017-08-24T00:47:10.390Z,24.65
2017-08-24T00:47:14.667Z,24.33
2017-08-24T00:47:18.925Z,24.20
2017-08-24T00:47:23.184Z,24.00
2017-08-24T00:47:27.443Z,24.10
2017-08-24T00:47:31.715Z,24.30
2017-08-24T00:47:36.124Z,24.50
2017-08-24T00:47:40.358Z,24.60
2017-08-24T00:47:44.611Z,24.67
2017-08-24T00:47:48.877Z,24.45
2017-08-24T00:47:53.128Z,24.10
2017-08-24T00:47:58.144Z,24.10
2017-08-24T00:48:02.401Z,24.17
2017-08-24T00:48:06.661Z,23.87
2017-08-24T00:48:10.899Z,23.75
2017-08-24T00:48:15.150Z,23.85
2017-08-24T00:48:19.403Z,24.03
2017-08-24T00:48:23.647Z,24.35
2017-08-24T00:48:28.675Z,24.50
2017-08-24T00:48:32.910Z,24.70
2017-08-24T00:48:37.171Z,24.70
2017-08-24T00:48:41.417Z,24.70
2017-08-24T00:48:45.658Z,25.05
2017-08-24T00:48:50.689Z,25.15
2017-08-24T00:48:54.935Z,25.13
2017-08-24T00:48:59.183Z,25.10
2017-08-24T00:49:03.433Z,25.37
2017-08-24T00:49:07.677Z,25.75
2017-08-24T00:49:11.951Z,25.90
2017-08-24T00:49:16.201Z,26.30
2017-08-24T00:49:20.463Z,26.35
2017-08-24T00:49:24.721Z,26.35
2017-08-24T00:49:28.959Z,26.05
2017-08-24T00:49:33.224Z,25.90
2017-08-24T00:49:37.457Z,25.60
2017-08-24T00:49:41.698Z,25.50
2017-08-24T00:49:45.953Z,25.40
2017-08-24T00:49:50.205Z,25.53
2017-08-24T00:49:54.453Z,25.65
2017-08-24T00:49:58.708Z,25.50
2017-08-24T00:50:02.964Z,25.15
2017-08-24T00:50:07.223Z,24.97
2017-08-24T00:50:11.475Z,24.50
2017-08-24T00:50:15.727Z,24.30
2017-08-24T00:50:20.008Z,24.20
2017-08-24T00:50:24.275Z,24.10
2017-08-24T00:50:28.527Z,24.15
2017-08-24T00:50:32.779Z,24.30
2017-08-24T00:50:37.042Z,24.37
2017-08-24T00:50:41.285Z,24.50
2017-08-24T00:50:45.543Z,24.50
2017-08-24T00:50:49.788Z,24.25
2017-08-24T00:50:54.056Z,23.80
2017-08-24T00:50:58.294Z,23.80
2017-08-24T00:51:02.571Z,23.95
2017-08-24T00:51:06.810Z,23.90
2017-08-24T00:51:11.076Z,23.73
2017-08-24T00:51:15.313Z,23.70
2017-08-24T00:51:19.571Z,23.60
2017-08-24T00:51:23.813Z,23.30
2017-08-24T00:51:28.061Z,23.50
2017-08-24T00:51:32.306Z,23.15
2017-08-24T00:51:36.559Z,23.25
2017-08-24T00:51:40.797Z,23.57
2017-08-24T00:51:45.061Z,23.45
2017-08-24T00:51:49.307Z,23.65
2017-08-24T00:51:53.549Z,23.85
2017-08-24T00:51:57.801Z,24.07
2017-08-24T00:52:02.059Z,24.20
2017-08-24T00:52:06.296Z,24.30
2017-08-24T00:52:10.551Z,24.85
2017-08-24T00:52:14.798Z,24.97
2017-08-24T00:52:19.049Z,25.05
2017-08-24T00:52:23.316Z,25.35
2017-08-24T00:52:27.567Z,25.35
2017-08-24T00:52:31.818Z,25.20
2017-08-24T00:52:36.079Z,25.10
2017-08-24T00:52:40.349Z,25.05
2017-08-24T00:52:44.597Z,25.00
2017-08-24T00:52:48.843Z,24.90
2017-08-24T00:52:53.123Z,24.90
2017-08-24T00:52:57.345Z,24.80
2017-08-24T00:53:02.361Z,24.50
2017-08-24T00:53:06.630Z,24.33
2017-08-24T00:53:10.887Z,24.30
2017-08-24T00:53:15.139Z,24.45
2017-08-24T00:53:20.145Z,24.60
2017-08-24T00:53:24.400Z,24.57
2017-08-24T00:53:28.646Z,24.60
2017-08-24T00:53:32.904Z,25.20
2017-08-24T00:53:37.153Z,25.30
2017-08-24T00:53:41.416Z,25.53
2017-08-24T00:53:45.675Z,25.90
2017-08-24T00:53:49.927Z,26.10
2017-08-24T00:53:54.176Z,26.45
2017-08-24T00:53:58.436Z,26.67
2017-08-24T00:54:02.691Z,26.95
2017-08-24T00:54:06.943Z,27.25
2017-08-24T00:54:11.200Z,27.05
2017-08-24T00:54:15.449Z,27.07
2017-08-24T00:54:19.689Z,27.20
2017-08-24T00:54:23.945Z,27.05
2017-08-24T00:54:28.189Z,27.00
2017-08-24T00:54:32.452Z,26.87
2017-08-24T00:54:36.689Z,26.65
2017-08-24T00:54:40.926Z,26.25
2017-08-24T00:54:45.191Z,25.70
2017-08-24T00:54:49.735Z,25.35
2017-08-24T00:54:53.988Z,24.85
2017-08-24T00:54:58.234Z,24.77
2017-08-24T00:55:02.495Z,24.80
2017-08-24T00:55:06.741Z,24.75
2017-08-24T00:55:10.974Z,25.00